Time;durP1;ratioP1;P1;durP2;ratioP2;P2;SDS_P1;SDS_P2;PMS_P1;PMS_P2;Temp;Humidity;BMP_temperature;BMP_pressure;BME280_temperature;BME280_humidity;BME280_pressure;Samples;Min_cycle;Max_cycle;Signal;HPM_P1;HPM_P2
2020/12/19 00:00:30;;;;;;;17.27;12.73;;;;;;;5.37;77.06;99207.94;5092091;28;20145;-67
2020/12/19 00:02:56;;;;;;;16.80;11.60;;;;;;;5.38;77.36;99210.38;5090830;28;20048;-66
2020/12/19 00:05:23;;;;;;;15.18;12.20;;;;;;;5.41;77.26;99204.84;5091466;28;20079;-65
2020/12/19 00:07:50;;;;;;;16.70;12.52;;;;;;;5.34;77.10;99206.41;5091913;28;20040;-66
2020/12/19 00:10:17;;;;;;;19.55;14.48;;;;;;;5.30;77.03;99201.63;5091950;28;20054;-66
2020/12/19 00:12:46;;;;;;;16.63;12.43;;;;;;;5.29;76.86;99203.41;5091907;28;20044;-65
2020/12/19 00:15:13;;;;;;;16.52;12.13;;;;;;;5.26;76.90;99197.66;5091765;28;20043;-66
2020/12/19 00:17:41;;;;;;;18.73;10.80;;;;;;;5.27;77.16;99196.69;5091988;28;20039;-66
2020/12/19 00:20:08;;;;;;;14.18;12.00;;;;;;;5.26;77.27;99197.66;5091889;28;20062;-66
2020/12/19 00:22:35;;;;;;;13.80;10.90;;;;;;;5.15;77.05;99183.81;5092024;28;20071;-66
2020/12/19 00:25:02;;;;;;;14.18;11.13;;;;;;;5.12;77.53;99185.91;5091610;28;20071;-65
2020/12/19 00:27:29;;;;;;;13.57;11.18;;;;;;;5.11;77.25;99186.88;5091805;28;20044;-66
2020/12/19 00:29:56;;;;;;;14.25;10.88;;;;;;;5.08;77.41;99177.50;5092014;28;20040;-66
2020/12/19 00:32:22;;;;;;;15.25;11.68;;;;;;;5.10;77.78;99177.34;5091905;28;20040;-66
2020/12/19 00:34:55;;;;;;;15.25;10.93;;;;;;;5.16;77.77;99174.13;5091734;28;20126;-66
2020/12/19 00:37:22;;;;;;;17.80;12.55;;;;;;;5.27;77.59;99176.56;5092292;28;20040;-66
2020/12/19 00:39:48;;;;;;;14.90;11.38;;;;;;;5.40;77.30;99176.16;5092143;28;20043;-66
2020/12/19 00:42:15;;;;;;;17.60;13.13;;;;;;;5.40;76.95;99168.31;5092631;28;20051;-66
2020/12/19 00:44:42;;;;;;;15.88;13.00;;;;;;;5.42;77.13;99166.34;5092838;28;20055;-66
2020/12/19 00:47:08;;;;;;;19.75;12.50;;;;;;;5.32;76.62;99165.59;5093111;28;20044;-65
2020/12/19 00:49:35;;;;;;;18.23;12.52;;;;;;;5.26;76.96;99161.78;5090548;28;20070;-66
2020/12/19 00:52:03;;;;;;;14.38;11.27;;;;;;;5.20;77.02;99157.97;5091632;28;20040;-66
2020/12/19 00:54:29;;;;;;;16.23;11.80;;;;;;;5.24;77.30;99155.06;5092638;28;20051;-65
2020/12/19 00:56:56;;;;;;;15.68;12.68;;;;;;;5.24;76.90;99162.91;5095219;28;20054;-65
2020/12/19 00:59:24;;;;;;;16.95;11.48;;;;;;;5.06;77.25;99158.50;5095044;28;20055;-66
2020/12/19 01:01:50;;;;;;;14.82;12.07;;;;;;;5.15;77.21;99147.13;5095029;28;20044;-66
2020/12/19 01:04:18;;;;;;;14.93;10.90;;;;;;;5.14;77.11;99148.09;5094652;28;20048;-66
2020/12/19 01:06:44;;;;;;;17.48;12.05;;;;;;;5.12;76.80;99138.72;5095335;28;20044;-66
2020/12/19 01:09:12;;;;;;;13.18;10.75;;;;;;;4.92;77.19;99144.09;5095164;28;20047;-66
2020/12/19 01:11:39;;;;;;;13.77;10.25;;;;;;;4.84;77.29;99144.00;5094816;28;20040;-65
2020/12/19 01:14:06;;;;;;;13.15;10.43;;;;;;;4.92;77.67;99138.84;5093294;28;20052;-66
2020/12/19 01:16:33;;;;;;;14.65;10.82;;;;;;;4.94;77.74;99142.16;5094728;28;20048;-66
2020/12/19 01:19:04;;;;;;;15.27;10.93;;;;;;;4.96;77.55;99137.59;5094913;28;20040;-66
2020/12/19 01:21:32;;;;;;;15.32;10.60;;;;;;;4.95;77.50;99141.19;5094790;28;20048;-66
2020/12/19 01:23:59;;;;;;;14.55;11.60;;;;;;;5.03;77.76;99137.00;5094432;28;20043;-66
2020/12/19 01:26:27;;;;;;;15.90;11.32;;;;;;;5.00;77.44;99137.28;5093232;28;20536;-66
2020/12/19 01:28:54;;;;;;;13.70;9.68;;;;;;;5.04;77.59;99138.66;5094372;28;20409;-65
2020/12/19 01:31:23;;;;;;;14.50;11.38;;;;;;;5.05;77.64;99138.47;5094803;28;20040;-66
2020/12/19 01:33:50;;;;;;;13.93;10.73;;;;;;;5.05;77.49;99132.41;5094186;28;20040;-65
2020/12/19 01:36:19;;;;;;;12.93;9.80;;;;;;;5.03;77.61;99132.59;5094314;28;20109;-66
2020/12/19 01:38:46;;;;;;;12.95;10.98;;;;;;;5.02;76.91;99132.72;5094507;28;20044;-65
2020/12/19 01:41:14;;;;;;;13.63;10.55;;;;;;;4.96;77.39;99127.09;5094475;28;20122;-66
2020/12/19 01:43:48;;;;;;;14.07;10.95;;;;;;;5.05;77.50;99135.03;5094679;28;20044;-66
2020/12/19 01:46:47;;;;;;;13.80;11.13;;;;;;;4.99;77.16;99133.84;5094387;28;20068;-65
2020/12/19 01:49:14;;;;;;;13.57;10.68;;;;;;;4.92;77.10;99131.00;5094747;28;20044;-66
2020/12/19 01:51:41;;;;;;;15.60;10.70;;;;;;;4.93;77.56;99131.81;5094806;28;20452;-66
2020/12/19 01:54:08;;;;;;;13.20;10.13;;;;;;;4.92;77.16;99128.38;5094257;28;20055;-65
2020/12/19 01:56:57;;;;;;;12.75;10.50;;;;;;;4.82;77.20;99122.38;5094263;28;20059;-65
2020/12/19 01:59:27;;;;;;;13.00;10.48;;;;;;;4.73;77.25;99118.00;5089704;28;20052;-64
2020/12/19 02:01:55;;;;;;;12.70;10.18;;;;;;;4.65;77.57;99117.94;5095085;28;20055;-66
2020/12/19 02:04:24;;;;;;;12.10;9.93;;;;;;;4.65;77.69;99116.16;5093932;28;20066;-66
2020/12/19 02:06:53;;;;;;;14.20;10.80;;;;;;;4.63;77.71;99114.66;5093881;28;20493;-66
2020/12/19 02:09:21;;;;;;;13.35;10.48;;;;;;;4.59;77.58;99115.91;5092392;28;20058;-65
2020/12/19 02:11:48;;;;;;;11.55;9.98;;;;;;;4.57;78.15;99116.06;5092497;28;20051;-65
2020/12/19 02:14:16;;;;;;;11.23;9.70;;;;;;;4.61;77.93;99108.72;5093396;28;20043;-66
2020/12/19 02:16:55;;;;;;;12.80;10.05;;;;;;;4.59;77.64;99103.63;5093858;28;20462;-66
2020/12/19 02:19:21;;;;;;;14.00;10.60;;;;;;;4.56;77.79;99097.88;5093634;28;20413;-65
2020/12/19 02:21:49;;;;;;;13.48;10.63;;;;;;;4.53;78.13;99104.25;5093915;28;20097;-65
2020/12/19 02:24:17;;;;;;;12.90;9.80;;;;;;;4.58;78.01;99101.19;5093203;28;20047;-65
2020/12/19 02:26:48;;;;;;;11.95;10.52;;;;;;;4.60;77.82;99097.41;5092405;28;20472;-66
2020/12/19 02:29:16;;;;;;;11.02;9.43;;;;;;;4.54;77.88;99097.19;5093273;28;20047;-65
2020/12/19 02:31:43;;;;;;;11.40;8.93;;;;;;;4.61;78.05;99088.63;5092056;28;20051;-66
2020/12/19 02:34:10;;;;;;;10.95;9.48;;;;;;;4.64;77.92;99093.53;5092219;28;20040;-66
2020/12/19 02:36:39;;;;;;;9.60;8.60;;;;;;;4.65;77.82;99084.72;5093436;28;20459;-65
2020/12/19 02:39:07;;;;;;;11.88;9.75;;;;;;;4.61;77.48;99088.63;5093349;28;20048;-66
2020/12/19 02:41:35;;;;;;;12.27;9.23;;;;;;;4.57;77.49;99082.03;5093407;28;20051;-66
2020/12/19 02:44:01;;;;;;;11.50;8.82;;;;;;;4.56;77.41;99082.16;5092992;28;20055;-66
2020/12/19 02:46:28;;;;;;;11.02;9.75;;;;;;;4.50;77.63;99078.34;5093748;28;20414;-66
2020/12/19 02:48:55;;;;;;;9.02;8.10;;;;;;;4.55;78.02;99078.72;5093136;28;20036;-66
2020/12/19 02:51:22;;;;;;;11.05;9.35;;;;;;;4.63;77.58;99085.84;5093642;28;20055;-66
2020/12/19 02:53:48;;;;;;;10.52;9.18;;;;;;;4.71;77.82;99076.25;5092905;28;20402;-66
2020/12/19 02:56:15;;;;;;;11.20;9.23;;;;;;;4.72;77.29;99079.72;5093141;28;20048;-65
2020/12/19 02:58:43;;;;;;;12.15;8.88;;;;;;;4.68;77.12;99075.75;5093447;28;20040;-65
2020/12/19 03:01:09;;;;;;;9.82;7.90;;;;;;;4.63;77.11;99076.19;5092875;28;20040;-65
2020/12/19 03:03:36;;;;;;;9.68;8.38;;;;;;;4.59;77.33;99076.63;5092683;28;20036;-66
2020/12/19 03:06:03;;;;;;;10.35;8.60;;;;;;;4.60;77.30;99075.66;5091444;28;20390;-66
2020/12/19 03:08:30;;;;;;;10.18;9.15;;;;;;;4.58;77.42;99067.97;5093038;28;20123;-66
2020/12/19 03:10:59;;;;;;;9.98;8.90;;;;;;;4.56;77.43;99063.81;5091499;28;20048;-66
2020/12/19 03:13:25;;;;;;;11.00;8.63;;;;;;;4.52;77.10;99065.91;5092391;28;20051;-66
2020/12/19 03:15:53;;;;;;;9.82;8.73;;;;;;;4.50;77.03;99059.19;5092791;28;20048;-65
2020/12/19 03:18:19;;;;;;;11.65;9.15;;;;;;;4.47;77.31;99063.75;5092079;28;20040;-66
2020/12/19 03:20:46;;;;;;;11.38;9.63;;;;;;;4.47;77.50;99070.78;5092493;28;20051;-66
2020/12/19 03:23:13;;;;;;;11.45;9.80;;;;;;;4.41;77.19;99055.66;5092424;28;20571;-66
2020/12/19 03:25:40;;;;;;;12.10;10.40;;;;;;;4.30;77.38;99061.91;5092085;28;20050;-64
2020/12/19 03:28:06;;;;;;;13.05;10.85;;;;;;;4.21;77.70;99063.63;5092390;28;20044;-65
2020/12/19 03:30:33;;;;;;;12.15;9.43;;;;;;;4.19;77.83;99056.88;5092347;28;20055;-65
2020/12/19 03:33:01;;;;;;;10.38;9.18;;;;;;;4.17;78.00;99056.22;5092461;28;20048;-65
2020/12/19 03:35:27;;;;;;;11.02;9.48;;;;;;;4.19;77.90;99062.94;5090686;28;20079;-65
2020/12/19 03:37:54;;;;;;;11.18;9.90;;;;;;;4.19;78.00;99060.31;5092177;28;20043;-63
2020/12/19 03:40:21;;;;;;;10.02;8.90;;;;;;;4.15;77.92;99058.94;5092140;28;20051;-64
2020/12/19 03:42:48;;;;;;;10.27;8.77;;;;;;;4.11;78.01;99046.31;5092224;28;20044;-65
2020/12/19 03:45:15;;;;;;;10.77;8.90;;;;;;;4.04;77.97;99056.56;5091827;28;20040;-64
2020/12/19 03:47:41;;;;;;;12.32;10.10;;;;;;;3.91;78.24;99051.63;5092210;28;20044;-64
2020/12/19 03:50:09;;;;;;;13.15;10.10;;;;;;;3.96;78.17;99052.03;5092080;28;20036;-64
2020/12/19 03:52:36;;;;;;;11.40;9.63;;;;;;;3.99;78.32;99048.28;5092160;28;20051;-64
2020/12/19 03:55:03;;;;;;;10.07;8.50;;;;;;;4.03;78.07;99048.81;5091838;28;20052;-63
2020/12/19 03:57:29;;;;;;;9.15;7.93;;;;;;;4.00;77.90;99055.19;5092111;28;20515;-64
2020/12/19 03:59:56;;;;;;;10.57;8.93;;;;;;;4.00;77.88;99049.97;5092149;28;20078;-64
2020/12/19 04:02:23;;;;;;;11.38;9.52;;;;;;;4.01;77.92;99053.41;5091970;28;20052;-64
2020/12/19 04:04:49;;;;;;;10.25;9.02;;;;;;;3.96;77.61;99048.59;5091627;28;20044;-64
2020/12/19 04:07:18;;;;;;;10.98;9.05;;;;;;;3.88;77.72;99040.66;5091889;28;20079;-64
2020/12/19 04:09:44;;;;;;;10.93;8.48;;;;;;;3.79;78.07;99042.31;5091771;28;20477;-64
2020/12/19 04:12:12;;;;;;;11.02;9.02;;;;;;;3.82;77.97;99049.06;5091900;28;20126;-65
2020/12/19 04:14:39;;;;;;;11.68;9.00;;;;;;;3.78;77.98;99051.13;5090280;28;20047;-65
2020/12/19 04:17:07;;;;;;;10.70;8.55;;;;;;;3.86;78.06;99045.19;5090616;28;20155;-65
2020/12/19 04:19:34;;;;;;;13.30;8.95;;;;;;;3.91;78.09;99046.38;5091859;28;20036;-65
2020/12/19 04:22:01;;;;;;;10.65;8.13;;;;;;;3.99;77.76;99045.69;5090546;28;20063;-64
2020/12/19 04:24:29;;;;;;;10.02;8.05;;;;;;;4.05;77.46;99042.50;5091471;28;20523;-64
2020/12/19 04:26:55;;;;;;;10.38;8.82;;;;;;;4.05;77.33;99039.88;5091742;28;20048;-64
2020/12/19 04:29:22;;;;;;;10.02;8.90;;;;;;;4.03;77.25;99033.13;5093195;28;20401;-65
2020/12/19 04:31:49;;;;;;;10.65;9.25;;;;;;;3.92;76.80;99042.84;5095543;28;20050;-64
2020/12/19 04:34:16;;;;;;;9.93;8.63;;;;;;;3.85;77.18;99039.13;5095309;28;20047;-64
2020/12/19 04:36:42;;;;;;;11.23;8.68;;;;;;;3.86;77.07;99032.09;5095676;28;20047;-65
2020/12/19 04:39:09;;;;;;;9.77;8.77;;;;;;;3.81;77.14;99035.16;5095480;28;20036;-65
2020/12/19 04:41:36;;;;;;;10.95;9.15;;;;;;;3.75;77.12;99033.09;5095574;28;20497;-64
2020/12/19 04:44:04;;;;;;;11.18;8.55;;;;;;;3.66;77.29;99034.78;5095127;28;20043;-65
2020/12/19 04:46:32;;;;;;;10.48;9.05;;;;;;;3.67;77.35;99043.44;5095458;28;20048;-65
2020/12/19 04:49:00;;;;;;;11.32;8.70;;;;;;;3.64;77.47;99036.75;5095384;28;20044;-65
2020/12/19 04:51:27;;;;;;;9.60;8.50;;;;;;;3.70;77.48;99036.16;5095168;28;20048;-65
2020/12/19 04:53:55;;;;;;;9.48;8.48;;;;;;;3.78;77.46;99035.44;5094924;28;20055;-65
2020/12/19 04:56:24;;;;;;;10.95;8.75;;;;;;;3.82;77.21;99036.81;5095145;28;20040;-65
2020/12/19 04:58:53;;;;;;;10.80;8.63;;;;;;;3.72;77.01;99030.78;5095148;28;20047;-65
2020/12/19 05:01:20;;;;;;;11.60;8.98;;;;;;;3.81;77.50;99034.34;5095060;28;20040;-65
2020/12/19 05:03:48;;;;;;;11.57;9.25;;;;;;;3.84;77.24;99039.28;5095441;28;20104;-64
2020/12/19 05:06:18;;;;;;;10.13;8.65;;;;;;;3.78;77.46;99043.28;5095036;28;20048;-65
2020/12/19 05:08:45;;;;;;;10.88;9.32;;;;;;;3.80;77.56;99037.94;5095363;28;20588;-64
2020/12/19 05:11:13;;;;;;;9.32;8.23;;;;;;;3.85;77.73;99038.31;5095925;28;20040;-64
2020/12/19 05:13:41;;;;;;;11.02;9.20;;;;;;;3.93;77.46;99043.66;5095950;28;20133;-64
2020/12/19 05:16:10;;;;;;;13.60;9.65;;;;;;;3.93;77.07;99039.25;5098110;28;20044;-64
2020/12/19 05:18:38;;;;;;;12.13;8.85;;;;;;;3.90;76.93;99044.75;5094025;28;20051;-65
2020/12/19 05:21:05;;;;;;;13.45;9.80;;;;;;;3.85;76.91;99038.31;5093621;28;20051;-64
2020/12/19 05:23:33;;;;;;;14.35;9.70;;;;;;;3.82;76.95;99036.81;5094676;28;20072;-64
2020/12/19 05:26:02;;;;;;;10.07;8.57;;;;;;;3.77;76.84;99035.59;5094743;28;20052;-64
2020/12/19 05:28:28;;;;;;;9.63;8.63;;;;;;;3.75;77.36;99038.34;5094688;28;20044;-65
2020/12/19 05:30:58;;;;;;;10.50;8.52;;;;;;;3.85;77.27;99046.16;5094561;28;20501;-65
2020/12/19 05:33:31;;;;;;;12.68;9.80;;;;;;;3.84;76.96;99045.34;5094378;28;20055;-64
2020/12/19 05:35:58;;;;;;;11.48;9.18;;;;;;;3.82;76.73;99044.66;5093291;28;20055;-64
2020/12/19 05:38:27;;;;;;;10.95;8.80;;;;;;;3.79;76.70;99039.69;5093223;28;20093;-65
2020/12/19 05:40:54;;;;;;;10.48;9.25;;;;;;;3.69;76.75;99031.91;5094000;28;20055;-64
2020/12/19 05:43:21;;;;;;;8.75;7.85;;;;;;;3.63;76.85;99036.88;5094110;28;20111;-64
2020/12/19 05:45:48;;;;;;;10.98;8.50;;;;;;;3.64;77.04;99041.97;5094228;28;20481;-65
2020/12/19 05:48:15;;;;;;;10.15;9.07;;;;;;;3.61;77.35;99044.84;5094286;28;20408;-64
2020/12/19 05:50:42;;;;;;;10.60;9.00;;;;;;;3.63;77.07;99037.72;5094268;28;20047;-64
2020/12/19 05:53:09;;;;;;;10.35;8.60;;;;;;;3.59;77.05;99038.97;5094117;28;20050;-65
2020/12/19 05:55:36;;;;;;;10.38;8.80;;;;;;;3.59;77.39;99043.34;5093953;28;20044;-64
2020/12/19 05:58:05;;;;;;;11.50;8.60;;;;;;;3.62;77.64;99043.06;5094491;28;20047;-64
2020/12/19 06:00:33;;;;;;;13.98;8.75;;;;;;;3.65;77.29;99046.22;5093880;28;20040;-64
2020/12/19 06:03:02;;;;;;;10.10;9.00;;;;;;;3.64;77.42;99046.38;5093886;28;20421;-64
2020/12/19 06:05:30;;;;;;;11.15;9.10;;;;;;;3.68;77.45;99047.75;5093713;28;20502;-64
2020/12/19 06:08:19;;;;;;;10.98;8.10;;;;;;;3.68;77.58;99047.75;5094023;28;20101;-64
2020/12/19 06:10:46;;;;;;;10.32;8.60;;;;;;;3.78;77.76;99045.06;5092356;28;20043;-64
2020/12/19 06:13:16;;;;;;;10.48;8.73;;;;;;;3.82;77.32;99042.03;5093745;28;20062;-64
2020/12/19 06:15:52;;;;;;;10.93;8.50;;;;;;;3.81;77.19;99039.56;5093702;28;20464;-64
2020/12/19 06:18:29;;;;;;;11.57;8.27;;;;;;;3.80;77.34;99040.53;5093911;28;20044;-65
2020/12/19 06:20:58;;;;;;;14.05;9.45;;;;;;;3.82;77.12;99039.41;5092334;28;20044;-65
2020/12/19 06:23:33;;;;;;;10.02;9.02;;;;;;;3.81;77.18;99039.56;5093238;28;20044;-64
2020/12/19 06:26:03;;;;;;;10.02;8.80;;;;;;;3.79;76.98;99034.47;5093667;28;20085;-64
2020/12/19 06:28:54;;;;;;;10.15;8.82;;;;;;;3.79;77.02;99041.50;5093421;28;20052;-65
2020/12/19 06:31:22;;;;;;;11.50;9.43;;;;;;;3.80;77.20;99037.94;5078289;28;20524;-65
2020/12/19 06:33:50;;;;;;;10.77;9.18;;;;;;;3.75;76.94;99040.94;5093138;28;20048;-65
2020/12/19 06:36:21;;;;;;;11.35;9.13;;;;;;;3.71;77.03;99032.59;5093342;28;20044;-64
2020/12/19 06:38:50;;;;;;;10.40;8.60;;;;;;;3.71;76.95;99027.38;5093313;28;20059;-64
2020/12/19 06:41:40;;;;;;;11.82;9.80;;;;;;;3.74;77.18;99034.06;5094174;28;20468;-64
2020/12/19 06:44:08;;;;;;;12.68;8.93;;;;;;;3.78;77.17;99035.44;5093213;28;20498;-64
2020/12/19 06:46:35;;;;;;;10.93;9.40;;;;;;;3.82;77.40;99034.19;5093419;28;20039;-65
2020/12/19 06:49:30;;;;;;;15.57;11.60;;;;;;;3.92;77.26;99039.41;5093322;28;20565;-65
2020/12/19 06:52:03;;;;;;;11.07;9.30;;;;;;;3.93;76.89;99039.25;5092133;28;20123;-65
2020/12/19 06:54:32;;;;;;;14.57;11.82;;;;;;;3.88;76.27;99041.47;5091397;28;20059;-65
2020/12/19 06:57:01;;;;;;;11.27;8.68;;;;;;;3.85;76.46;99026.06;5093197;28;20052;-65
2020/12/19 06:59:29;;;;;;;10.38;9.25;;;;;;;3.86;76.54;99027.69;5092881;28;20086;-65
2020/12/19 07:02:13;;;;;;;9.68;8.68;;;;;;;3.85;76.71;99030.47;5092845;28;20414;-65
2020/12/19 07:04:40;;;;;;;10.07;8.43;;;;;;;3.88;76.71;99035.41;5092469;28;20048;-65
2020/12/19 07:07:08;;;;;;;11.55;9.10;;;;;;;3.93;76.61;99034.00;5091471;28;20052;-65
2020/12/19 07:09:36;;;;;;;10.35;8.73;;;;;;;3.96;76.40;99020.66;5092796;28;20068;-65
2020/12/19 07:12:04;;;;;;;9.23;8.10;;;;;;;3.95;76.49;99032.06;5092695;28;20069;-65
2020/12/19 07:14:41;;;;;;;10.07;8.40;;;;;;;4.01;76.44;99040.31;5092240;28;20066;-65
2020/12/19 07:17:17;;;;;;;10.98;8.13;;;;;;;4.00;76.47;99034.25;5092655;28;20114;-65
2020/12/19 07:19:45;;;;;;;11.15;9.00;;;;;;;3.95;76.40;99033.84;5091235;28;20048;-65
2020/12/19 07:22:13;;;;;;;10.68;8.82;;;;;;;3.87;76.32;99031.97;5091424;28;20062;-65
2020/12/19 07:24:40;;;;;;;9.52;7.90;;;;;;;3.77;76.41;99046.06;5092074;28;20048;-64
2020/12/19 07:27:07;;;;;;;9.43;8.13;;;;;;;3.72;76.69;99036.84;5092598;28;20047;-65
2020/12/19 07:29:34;;;;;;;17.90;12.90;;;;;;;3.82;76.79;99042.03;5092319;28;20047;-65
2020/12/19 07:32:01;;;;;;;22.45;14.48;;;;;;;3.82;76.78;99038.59;5092390;28;20051;-65
2020/12/19 07:34:30;;;;;;;10.27;8.70;;;;;;;3.80;76.61;99045.78;5092027;28;20040;-65
2020/12/19 07:36:57;;;;;;;10.18;8.50;;;;;;;3.83;76.78;99046.28;5092428;28;20058;-65
2020/12/19 07:39:24;;;;;;;10.32;8.93;;;;;;;3.82;76.45;99047.25;5092336;28;20405;-65
2020/12/19 07:42:04;;;;;;;10.75;9.23;;;;;;;3.88;76.38;99041.47;5092724;28;20052;-65
2020/12/19 07:44:31;;;;;;;11.60;9.40;;;;;;;3.95;76.40;99047.75;5092162;28;20044;-64
2020/12/19 07:47:00;;;;;;;12.02;10.07;;;;;;;3.92;76.05;99044.63;5091569;28;20097;-65
2020/12/19 07:49:33;;;;;;;13.43;9.95;;;;;;;3.94;75.99;99056.56;5092427;28;20036;-65
2020/12/19 07:52:04;;;;;;;14.90;11.63;;;;;;;3.95;75.84;99060.00;5092369;28;20044;-65
2020/12/19 07:54:31;;;;;;;16.30;12.25;;;;;;;3.90;76.10;99055.22;5092071;28;20109;-65
2020/12/19 07:56:58;;;;;;;14.75;10.43;;;;;;;3.92;75.89;99055.09;5092241;28;20040;-65
2020/12/19 07:59:27;;;;;;;13.27;10.02;;;;;;;3.83;75.70;99058.53;5092283;28;20040;-65
2020/12/19 08:01:54;;;;;;;14.07;10.25;;;;;;;3.71;75.74;99060.50;5092313;28;20036;-65
2020/12/19 08:04:21;;;;;;;13.25;9.68;;;;;;;3.73;76.15;99066.44;5095048;28;20040;-65
2020/12/19 08:06:48;;;;;;;14.63;11.65;;;;;;;3.77;76.24;99057.34;5096630;28;20490;-65
2020/12/19 08:09:30;;;;;;;11.40;8.32;;;;;;;3.76;76.27;99070.56;5096261;28;20485;-64
2020/12/19 08:12:00;;;;;;;9.73;8.00;;;;;;;3.71;76.06;99071.81;5096355;28;20513;-64
2020/12/19 08:14:28;;;;;;;9.57;7.93;;;;;;;3.63;76.11;99065.63;5096091;28;20508;-65
2020/12/19 08:16:57;;;;;;;12.27;8.70;;;;;;;3.69;76.13;99059.84;5096193;28;20044;-65
2020/12/19 08:19:33;;;;;;;11.52;8.43;;;;;;;3.72;75.91;99067.41;5096329;28;20040;-65
2020/12/19 08:22:01;;;;;;;10.25;8.82;;;;;;;3.65;75.90;99072.38;5096158;28;20044;-64
2020/12/19 08:24:28;;;;;;;16.42;10.02;;;;;;;3.74;76.05;99062.84;5095840;28;20055;-64
2020/12/19 08:27:27;;;;;;;11.70;9.00;;;;;;;3.87;76.07;99068.56;5095865;28;20493;-65
2020/12/19 08:30:07;;;;;;;10.95;8.27;;;;;;;4.02;75.93;99061.09;5095876;28;20040;-66
2020/12/19 08:32:35;;;;;;;13.27;10.63;;;;;;;4.08;75.60;99057.91;5095980;28;20046;-65
2020/12/19 08:35:02;;;;;;;13.02;9.65;;;;;;;4.14;75.60;99059.13;5095457;28;20047;-65
2020/12/19 08:37:29;;;;;;;12.68;8.90;;;;;;;4.11;75.42;99059.41;5095688;28;20048;-66
2020/12/19 08:40:11;;;;;;;9.75;8.73;;;;;;;4.09;75.20;99059.53;5095538;28;20164;-65
2020/12/19 08:42:43;;;;;;;8.77;7.82;;;;;;;4.04;75.76;99056.56;5095534;28;20044;-65
2020/12/19 08:45:29;;;;;;;10.60;8.15;;;;;;;4.12;75.83;99063.66;5095516;28;20386;-65
2020/12/19 08:48:02;;;;;;;11.35;8.20;;;;;;;4.24;75.66;99062.50;5095999;28;20046;-65
2020/12/19 08:50:36;;;;;;;12.27;9.32;;;;;;;4.41;75.75;99058.28;5095436;28;20043;-65
2020/12/19 08:53:13;;;;;;;;;;;;;;;4.59;75.48;99066.16;5095651;28;20044;-65
2020/12/19 08:55:40;;;;;;;22.33;12.02;;;;;;;4.70;75.68;99060.72;5095054;28;19927;-65
2020/12/19 08:58:07;;;;;;;47.25;20.10;;;;;;;4.83;75.49;99061.16;5095299;28;20052;-65
2020/12/19 09:00:37;;;;;;;11.40;8.70;;;;;;;4.91;75.46;99061.25;5095286;28;20051;-65
2020/12/19 09:03:08;;;;;;;10.63;8.48;;;;;;;4.98;75.45;99064.09;5095232;28;20047;-65
2020/12/19 09:05:37;;;;;;;10.98;8.23;;;;;;;5.02;75.57;99064.59;5094695;28;20051;-65
2020/12/19 09:08:04;;;;;;;13.07;8.80;;;;;;;5.07;75.50;99072.84;5095130;28;20048;-65
2020/12/19 09:10:32;;;;;;;11.45;8.65;;;;;;;5.14;75.53;99071.25;5094874;28;20478;-65
2020/12/19 09:13:11;;;;;;;10.05;8.18;;;;;;;5.31;75.35;99069.59;5094923;28;20489;-65
2020/12/19 09:15:40;;;;;;;8.43;7.53;;;;;;;5.30;75.36;99083.66;5093592;28;20059;-65
2020/12/19 09:18:17;;;;;;;12.23;8.27;;;;;;;5.34;75.21;99083.19;5094793;28;20402;-65
2020/12/19 09:20:45;;;;;;;8.65;7.75;;;;;;;5.41;75.26;99080.81;5094791;28;20044;-65
2020/12/19 09:23:12;;;;;;;11.27;8.32;;;;;;;5.59;75.34;99080.75;5094833;28;20047;-65
2020/12/19 09:25:39;;;;;;;9.90;8.38;;;;;;;5.68;74.83;99080.66;5094429;28;20536;-65
2020/12/19 09:28:06;;;;;;;9.50;7.60;;;;;;;5.75;75.39;99075.59;5094774;28;20048;-64
2020/12/19 09:30:33;;;;;;;10.30;7.85;;;;;;;5.95;75.28;99078.88;5094728;28;20036;-65
2020/12/19 09:33:01;;;;;;;10.23;8.02;;;;;;;6.09;75.35;99075.69;5094619;28;20047;-64
2020/12/19 09:35:28;;;;;;;9.68;7.22;;;;;;;6.28;75.21;99077.22;5094377;28;20418;-65
2020/12/19 09:37:55;;;;;;;9.00;7.15;;;;;;;6.47;75.19;99076.13;5094699;28;20052;-65
2020/12/19 09:40:27;;;;;;;13.20;9.27;;;;;;;6.65;74.94;99079.50;5095328;28;20050;-65
2020/12/19 09:42:54;;;;;;;11.10;8.27;;;;;;;6.85;74.69;99072.13;5096313;28;20505;-65
2020/12/19 09:45:21;;;;;;;11.98;6.13;;;;;;;7.08;74.37;99072.31;5096241;28;20036;-65
2020/12/19 09:47:47;;;;;;;6.13;4.90;;;;;;;7.49;74.38;99069.69;5094879;28;20048;-65
2020/12/19 09:50:15;;;;;;;7.68;5.00;;;;;;;7.93;73.57;99066.63;5094401;28;20054;-65
2020/12/19 09:52:42;;;;;;;6.72;4.40;;;;;;;8.26;73.18;99061.25;5094165;28;20044;-65
2020/12/19 09:55:10;;;;;;;5.82;3.90;;;;;;;8.57;72.11;99075.31;5094048;28;20044;-65
2020/12/19 09:57:36;;;;;;;4.70;2.60;;;;;;;8.78;71.30;99074.69;5093993;28;20123;-64
2020/12/19 10:00:05;;;;;;;3.47;3.08;;;;;;;8.91;70.92;99067.00;5094017;28;20490;-65
2020/12/19 10:02:37;;;;;;;11.18;4.93;;;;;;;9.07;70.60;99059.97;5094203;28;20047;-65
2020/12/19 10:05:06;;;;;;;4.07;3.47;;;;;;;9.18;69.73;99067.47;5093586;28;20143;-65
2020/12/19 10:07:34;;;;;;;2.92;2.63;;;;;;;9.26;69.40;99072.66;5093826;28;20040;-65
2020/12/19 10:10:01;;;;;;;3.10;2.80;;;;;;;9.34;69.54;99058.59;5093692;28;20044;-65
2020/12/19 10:12:27;;;;;;;3.70;3.20;;;;;;;9.40;68.93;99056.06;5093765;28;20387;-65
2020/12/19 10:14:54;;;;;;;5.63;3.30;;;;;;;9.45;69.01;99058.16;5093313;28;20524;-65
2020/12/19 10:17:21;;;;;;;4.40;2.97;;;;;;;9.49;68.33;99056.81;5092291;28;20052;-65
2020/12/19 10:19:47;;;;;;;5.13;3.50;;;;;;;9.53;68.29;99050.19;5093564;28;20036;-65
2020/12/19 10:22:15;;;;;;;5.10;2.35;;;;;;;9.61;67.66;99051.91;5093570;28;20040;-65
2020/12/19 10:24:42;;;;;;;3.30;2.50;;;;;;;9.70;68.05;99044.72;5092950;28;20093;-65
2020/12/19 10:27:09;;;;;;;6.05;3.90;;;;;;;9.73;67.67;99044.38;5093325;28;20052;-65
2020/12/19 10:29:36;;;;;;;3.85;2.58;;;;;;;9.79;67.45;99054.19;5093241;28;20047;-65
2020/12/19 10:32:06;;;;;;;3.85;2.90;;;;;;;9.82;66.97;99053.84;5093173;28;20046;-65
2020/12/19 10:34:37;;;;;;;4.57;2.65;;;;;;;9.85;66.78;99045.56;5092938;28;20434;-65
2020/12/19 10:37:04;;;;;;;5.78;3.95;;;;;;;9.86;67.06;99044.56;5093117;28;20494;-65
2020/12/19 10:39:30;;;;;;;6.50;3.20;;;;;;;9.89;66.78;99039.75;5093286;28;20040;-65
2020/12/19 10:41:58;;;;;;;4.22;2.85;;;;;;;10.04;65.82;99037.09;5093513;28;20478;-65
2020/12/19 10:44:25;;;;;;;2.65;2.17;;;;;;;10.09;65.50;99034.72;5092947;28;20043;-65
2020/12/19 10:46:51;;;;;;;3.92;2.85;;;;;;;10.16;65.43;99045.34;5093029;28;20092;-65
2020/12/19 10:49:18;;;;;;;3.88;2.67;;;;;;;10.22;65.12;99035.91;5092875;28;20048;-65
2020/12/19 10:51:45;;;;;;;2.92;2.60;;;;;;;10.39;64.37;99038.16;5092976;28;20077;-65
2020/12/19 10:54:12;;;;;;;5.35;2.20;;;;;;;10.40;64.26;99034.50;5091276;28;20047;-65
2020/12/19 10:56:53;;;;;;;4.40;2.72;;;;;;;10.40;63.94;99023.94;5092915;28;20097;-65
2020/12/19 10:59:21;;;;;;;5.45;2.72;;;;;;;10.48;63.63;99014.28;5092808;28;20077;-66
2020/12/19 11:01:48;;;;;;;7.32;2.75;;;;;;;10.50;63.43;99012.28;5093001;28;20437;-65
2020/12/19 11:04:15;;;;;;;4.40;2.35;;;;;;;10.50;63.21;99006.97;5092374;28;20040;-65
2020/12/19 11:06:41;;;;;;;3.70;2.60;;;;;;;10.55;63.27;98997.47;5092727;28;20381;-65
2020/12/19 11:09:08;;;;;;;4.60;3.00;;;;;;;10.59;62.95;98992.63;5092643;28;20039;-65
2020/12/19 11:11:35;;;;;;;5.13;2.88;;;;;;;10.60;63.01;98995.09;5092689;28;20044;-65
2020/12/19 11:14:01;;;;;;;4.88;2.70;;;;;;;10.75;62.81;98981.00;5092439;28;20051;-65
2020/12/19 11:16:30;;;;;;;3.58;2.38;;;;;;;10.84;61.98;98982.50;5092689;28;20525;-65
2020/12/19 11:18:57;;;;;;;6.07;3.08;;;;;;;10.97;62.17;98979.16;5092528;28;20502;-65
2020/12/19 11:21:25;;;;;;;10.43;2.58;;;;;;;11.10;61.19;98974.81;5092414;28;20050;-65
2020/12/19 11:23:52;;;;;;;3.97;2.33;;;;;;;11.21;61.32;98967.34;5090907;28;20055;-65
2020/12/19 11:26:19;;;;;;;3.08;2.10;;;;;;;11.33;60.58;98973.72;5092483;28;20040;-65
2020/12/19 11:28:48;;;;;;;4.82;2.10;;;;;;;11.44;60.77;98967.09;5092168;28;20527;-65
2020/12/19 11:31:15;;;;;;;4.97;2.25;;;;;;;11.52;60.47;98957.16;5091993;28;20065;-65
2020/12/19 11:33:43;;;;;;;3.80;2.33;;;;;;;11.67;59.63;98964.97;5091781;28;20048;-65
2020/12/19 11:36:15;;;;;;;3.38;1.90;;;;;;;11.80;59.25;98962.41;5092027;28;20054;-65
2020/12/19 11:38:41;;;;;;;4.68;2.30;;;;;;;11.88;59.08;98962.28;5091569;28;20056;-65
2020/12/19 11:41:08;;;;;;;3.67;2.80;;;;;;;11.95;58.85;98957.00;5092299;28;20032;-66